الصفحة الرئيسية
METAR-TAF:

METAR-TAF

مطار :

مطار توسان الدولي

توسان, أريزونا, الولايات المتحدة

دائرة عرض: 32-07-53N, خط طول: 110-57-19W, ارتفاع: 805 متر

مراقبة الطقس الحالي

تاريخ ووقت الإصدار 21 دقيقة قبل الساعة 09:53UTC
ريح 15 عقدة من الشرق/الجنوب الشرقي تتزايد حتى 28 عقدة
درجة الحرارة 25°درجة مئوية
الرطوبة 21%
ضغط 1019 hPa
الرؤية: 16.1 كم
سماء صافية

METAR: KTUS 290953Z 12015G28KT 10SM CLR 25/01 A3009 RMK AO2 PK WND 13028/0945 SLP134 T02500011

زمن: 03:14 (10:14 UTC)

توقعات

تاريخ ووقت الإصدار 4ساعات و 54 دقيقة قبل الساعة 05:20UTC
التوقعات صالحة من29 الساعة 06 UTC إلى 30 الساعة 06 UTC
ريح 11 عقدة من الشرق/الجنوب الشرقي
الرؤية: 10 كم
سماء صافية
من 29 الساعة 0900 UTC
ريح 16 عقدة من الشرق/الجنوب الشرقي تتزايد حتى 25 عقدة
الرؤية: 10 كم
سماء صافية
من 29 الساعة 1900 UTC
ريح 10 عقدة من الشرق
الرؤية: 10 كم
سماء صافية

TAF: KTUS 290520Z 2906/3006 11011KT P6SM SKC FM290900 12016G25KT P6SM SKC FM291900 09010KT P6SM SKC

أرصاد الطقس والتوقعات من أكثر من 4000 مطار (تقارير الطقس للمطار METAR والتنبؤ بالطقس بالمطارTAF).

المحطات المتاحة هي النقط الصفراء والحمراء على الخريطة.

حرك المؤشر فوق النقطة لمعرفة اسم المحطة.

ثم انقر لمعرفة أرصاد وتوقعات الطقس.

لتغيير الخارطة: اضغط على الأزرار الخضراء مع رمز الصليب الأسود للتكبير. على الزر الأخضر مع شرطة للتصغير، أو على الأسهم الخضراء للخرائط المجاورة.


METAR-TAF: